createdAt,value
2019-02-10T00:00:48.124Z,94.77
2019-02-10T00:03:18.483Z,97.03
2019-02-10T00:05:49.079Z,101.47
2019-02-10T00:08:19.825Z,98.20
2019-02-10T00:10:50.892Z,94.63
2019-02-10T00:13:35.300Z,98.23
2019-02-10T00:16:26.877Z,109.50
2019-02-10T00:18:59.884Z,110.60
2019-02-10T00:21:30.905Z,107.47
2019-02-10T00:24:02.078Z,121.47
2019-02-10T00:26:32.964Z,108.63
2019-02-10T00:29:04.102Z,99.70
2019-02-10T00:31:35.183Z,110.87
2019-02-10T00:34:08.175Z,106.33
2019-02-10T00:36:39.324Z,103.93
2019-02-10T00:39:10.179Z,105.67
2019-02-10T00:41:43.124Z,105.20
2019-02-10T00:44:15.123Z,109.03
2019-02-10T00:46:46.002Z,104.67
2019-02-10T00:49:16.965Z,101.60
2019-02-10T00:51:48.663Z,101.83
2019-02-10T00:54:19.180Z,108.63
2019-02-10T00:56:52.015Z,112.33
2019-02-10T00:59:24.205Z,103.03
2019-02-10T01:01:55.143Z,99.07
2019-02-10T01:04:26.190Z,111.43
2019-02-10T01:06:57.116Z,114.53
2019-02-10T01:09:28.063Z,114.53
2019-02-10T01:11:59.238Z,100.47
2019-02-10T01:14:30.148Z,103.57
2019-02-10T01:17:01.104Z,103.47
2019-02-10T01:19:32.184Z,102.93
2019-02-10T01:22:03.126Z,116.07
2019-02-10T01:24:33.959Z,104.23
2019-02-10T01:27:04.463Z,105.53
2019-02-10T01:29:35.292Z,105.70
2019-02-10T01:32:06.928Z,113.97
2019-02-10T01:34:37.875Z,109.13
2019-02-10T01:37:09.285Z,112.43
2019-02-10T01:39:39.672Z,122.20
2019-02-10T01:42:10.574Z,109.97
2019-02-10T01:44:41.821Z,109.97
2019-02-10T01:47:12.419Z,110.07
2019-02-10T01:49:43.288Z,116.23
2019-02-10T01:52:14.362Z,120.70
2019-02-10T01:54:45.298Z,119.83
2019-02-10T01:57:16.173Z,114.13
2019-02-10T01:59:47.225Z,113.30
2019-02-10T02:02:18.188Z,115.83
2019-02-10T02:04:48.972Z,111.17
2019-02-10T02:07:19.867Z,106.30
2019-02-10T02:09:50.823Z,111.77
2019-02-10T02:12:21.477Z,124.47
2019-02-10T02:14:52.470Z,125.93
2019-02-10T02:17:23.814Z,110.07
2019-02-10T02:19:54.712Z,105.70
2019-02-10T02:22:25.392Z,111.17
2019-02-10T02:24:56.517Z,123.47
2019-02-10T02:27:27.476Z,115.67
2019-02-10T02:29:58.412Z,125.40
2019-02-10T02:32:29.433Z,132.73
2019-02-10T02:35:00.239Z,121.87
2019-02-10T02:37:31.269Z,120.47
2019-02-10T02:40:01.688Z,121.60
2019-02-10T02:42:32.982Z,122.13
2019-02-10T02:45:03.660Z,113.73
2019-02-10T02:47:34.529Z,121.73
2019-02-10T02:50:06.177Z,125.30
2019-02-10T02:52:36.610Z,122.20
2019-02-10T02:55:07.833Z,125.07
2019-02-10T02:57:38.357Z,114.57
2019-02-10T03:00:09.482Z,126.20
2019-02-10T03:02:39.912Z,120.50
2019-02-10T03:05:11.038Z,121.23
2019-02-10T03:07:42.304Z,119.63
2019-02-10T03:10:12.820Z,115.97
2019-02-10T03:12:44.140Z,123.20
2019-02-10T03:15:14.747Z,121.37
2019-02-10T03:17:45.991Z,116.47
2019-02-10T03:20:16.890Z,107.93
2019-02-10T03:22:47.948Z,115.77
2019-02-10T03:25:18.734Z,118.73
2019-02-10T03:27:49.743Z,118.27
2019-02-10T03:30:20.751Z,108.43
2019-02-10T03:32:51.724Z,108.87
2019-02-10T03:35:22.606Z,110.90
2019-02-10T03:37:53.558Z,101.37
2019-02-10T03:40:24.902Z,105.27
2019-02-10T03:42:55.593Z,108.33
2019-02-10T03:45:26.639Z,106.37
2019-02-10T03:47:57.580Z,105.63
2019-02-10T03:50:28.605Z,117.93
2019-02-10T03:52:58.950Z,106.17
2019-02-10T03:55:29.957Z,107.77
2019-02-10T03:58:00.915Z,126.13
2019-02-10T04:00:31.869Z,116.10
2019-02-10T04:03:02.968Z,117.87
2019-02-10T04:05:34.162Z,115.67
2019-02-10T04:08:04.893Z,111.77
2019-02-10T04:10:36.197Z,119.50
2019-02-10T04:13:07.170Z,114.77
2019-02-10T04:15:37.908Z,114.50
2019-02-10T04:18:08.948Z,112.73
2019-02-10T04:20:39.729Z,113.17
2019-02-10T04:23:10.910Z,121.40
2019-02-10T04:25:42.108Z,122.17
2019-02-10T04:28:12.996Z,128.47
2019-02-10T04:30:43.987Z,110.07
2019-02-10T04:33:14.830Z,113.63
2019-02-10T04:35:45.842Z,124.90
2019-02-10T04:38:16.799Z,114.93
2019-02-10T04:40:47.174Z,118.20
2019-02-10T04:43:17.995Z,111.47
2019-02-10T04:45:49.172Z,120.97
2019-02-10T04:48:20.260Z,121.10
2019-02-10T04:50:51.765Z,126.73
2019-02-10T04:53:22.182Z,109.33
2019-02-10T04:56:19.101Z,125.07
2019-02-10T04:58:51.213Z,125.90
2019-02-10T05:01:23.177Z,124.40
2019-02-10T05:03:56.270Z,125.80
2019-02-10T05:06:27.228Z,115.60
2019-02-10T05:08:58.225Z,119.30
2019-02-10T05:11:29.182Z,114.80
2019-02-10T05:14:00.071Z,118.57
2019-02-10T05:16:31.067Z,132.00
2019-02-10T05:19:01.987Z,126.83
2019-02-10T05:21:32.923Z,130.77
2019-02-10T05:24:03.927Z,128.97
2019-02-10T05:26:34.717Z,117.70
2019-02-10T05:29:07.375Z,116.57
2019-02-10T05:31:38.447Z,127.70
2019-02-10T05:34:09.271Z,134.23
2019-02-10T05:36:39.806Z,125.93
2019-02-10T05:39:11.259Z,138.13
2019-02-10T05:41:42.396Z,131.83
2019-02-10T05:44:13.247Z,125.17
2019-02-10T05:46:44.257Z,122.37
2019-02-10T05:49:15.110Z,127.53
2019-02-10T05:51:46.089Z,132.50
2019-02-10T05:54:17.014Z,129.63
2019-02-10T05:56:48.096Z,140.17
2019-02-10T05:59:18.457Z,126.90
2019-02-10T06:02:09.397Z,119.90
2019-02-10T06:04:41.939Z,117.83
2019-02-10T06:07:16.531Z,116.30
2019-02-10T06:09:51.051Z,125.47
2019-02-10T06:12:23.834Z,118.97
2019-02-10T06:14:54.547Z,121.20
2019-02-10T06:17:25.446Z,113.93
2019-02-10T06:19:56.335Z,112.87
2019-02-10T06:22:27.280Z,111.10
2019-02-10T06:24:58.250Z,109.50
2019-02-10T06:27:29.327Z,101.53
2019-02-10T06:30:00.332Z,105.47
2019-02-10T06:32:30.986Z,108.47
2019-02-10T06:35:01.625Z,95.67
2019-02-10T06:37:32.566Z,103.30
2019-02-10T06:40:04.697Z,105.53
2019-02-10T06:42:35.357Z,97.93
2019-02-10T06:45:07.168Z,104.27
2019-02-10T06:47:37.804Z,104.30
2019-02-10T06:50:09.032Z,96.43
2019-02-10T06:52:39.425Z,92.10
2019-02-10T06:55:11.864Z,98.70
2019-02-10T06:57:43.830Z,87.80
2019-02-10T07:00:45.883Z,87.10
2019-02-10T07:03:43.160Z,84.60
2019-02-10T07:06:14.123Z,86.27
2019-02-10T07:08:45.043Z,83.10
2019-02-10T07:11:15.695Z,82.13
2019-02-10T07:13:54.600Z,77.00
2019-02-10T07:16:42.638Z,79.20
2019-02-10T07:19:51.109Z,75.30
2019-02-10T07:23:02.706Z,75.23
2019-02-10T07:25:55.884Z,69.37
2019-02-10T07:28:49.142Z,63.33
2019-02-10T07:31:25.056Z,76.90
2019-02-10T07:34:48.270Z,71.63
2019-02-10T07:37:40.117Z,70.57
2019-02-10T07:41:06.866Z,70.73
2019-02-10T07:44:18.187Z,61.57
2019-02-10T07:47:22.180Z,64.50
2019-02-10T07:50:48.051Z,58.77
2019-02-10T07:53:38.851Z,66.70
2019-02-10T07:56:49.083Z,76.47
2019-02-10T07:59:43.400Z,64.47
2019-02-10T08:02:57.860Z,74.23
2019-02-10T08:05:51.658Z,76.07
2019-02-10T08:09:05.376Z,77.20
2019-02-10T08:12:01.135Z,66.63
2019-02-10T08:14:46.672Z,71.53
2019-02-10T08:18:08.653Z,66.33
2019-02-10T08:20:49.324Z,74.90
2019-02-10T08:23:41.124Z,74.43
2019-02-10T08:26:47.563Z,58.63
2019-02-10T08:29:45.096Z,77.27
2019-02-10T08:32:42.584Z,80.10
2019-02-10T08:35:54.758Z,69.63
2019-02-10T08:38:54.815Z,71.57
2019-02-10T08:42:07.039Z,72.60
2019-02-10T08:45:09.605Z,78.97
2019-02-10T08:48:04.126Z,69.90
2019-02-10T08:51:09.694Z,73.10
2019-02-10T08:53:42.765Z,68.67
2019-02-10T08:56:13.306Z,74.23
2019-02-10T08:58:44.257Z,77.70
2019-02-10T09:01:15.178Z,77.73
2019-02-10T09:03:47.923Z,87.43
2019-02-10T09:06:20.321Z,95.43
2019-02-10T09:08:51.268Z,86.77
2019-02-10T09:11:22.279Z,92.27
2019-02-10T09:13:53.322Z,94.30
2019-02-10T09:16:27.981Z,98.03
2019-02-10T09:19:01.968Z,91.20
2019-02-10T09:21:34.125Z,95.23
2019-02-10T09:24:04.863Z,93.40
2019-02-10T09:26:35.677Z,97.03
2019-02-10T09:29:06.323Z,97.27
2019-02-10T09:31:37.141Z,83.30
2019-02-10T09:34:07.713Z,92.73
2019-02-10T09:36:38.429Z,102.67
2019-02-10T09:39:10.795Z,95.87
2019-02-10T09:41:43.830Z,94.50
2019-02-10T09:44:16.475Z,100.83
2019-02-10T09:46:47.385Z,86.97
2019-02-10T09:49:18.388Z,101.87
2019-02-10T09:51:49.505Z,98.17
2019-02-10T09:54:22.514Z,94.10
2019-02-10T09:56:53.489Z,97.17
2019-02-10T09:59:24.905Z,99.97
2019-02-10T10:01:56.516Z,114.93
2019-02-10T10:04:28.644Z,104.47
2019-02-10T10:06:59.531Z,102.93
2019-02-10T10:09:30.569Z,95.47
2019-02-10T10:12:03.590Z,104.47
2019-02-10T10:14:34.496Z,113.30
2019-02-10T10:17:05.684Z,105.60
2019-02-10T10:19:36.342Z,104.70
2019-02-10T10:22:07.003Z,108.70
2019-02-10T10:24:37.547Z,106.43
2019-02-10T10:27:08.543Z,102.87
2019-02-10T10:29:39.137Z,112.03
2019-02-10T10:32:09.574Z,110.73
2019-02-10T10:34:41.821Z,125.13
2019-02-10T10:37:13.583Z,112.10
2019-02-10T10:39:44.626Z,107.10
2019-02-10T10:42:15.672Z,129.23
2019-02-10T10:44:46.601Z,119.60
2019-02-10T10:47:17.720Z,115.70
2019-02-10T10:49:53.276Z,117.20
2019-02-10T10:52:24.656Z,116.90
2019-02-10T10:54:55.835Z,114.93
2019-02-10T10:57:28.822Z,132.47
2019-02-10T11:00:02.806Z,120.10
2019-02-10T11:02:33.735Z,133.03
2019-02-10T11:05:04.527Z,126.97
2019-02-10T11:07:34.953Z,123.70
2019-02-10T11:10:06.287Z,131.53
2019-02-10T11:12:36.671Z,126.17
2019-02-10T11:15:08.415Z,125.63
2019-02-10T11:17:40.206Z,133.90
2019-02-10T11:20:11.176Z,123.40
2019-02-10T11:22:43.895Z,128.17
2019-02-10T11:25:16.007Z,122.53
2019-02-10T11:27:46.894Z,128.07
2019-02-10T11:30:18.027Z,125.90
2019-02-10T11:32:50.132Z,119.43
2019-02-10T11:35:23.602Z,123.60
2019-02-10T11:37:56.113Z,112.40
2019-02-10T11:40:27.263Z,113.57
2019-02-10T11:43:00.103Z,118.90
2019-02-10T11:45:31.082Z,106.07
2019-02-10T11:48:02.023Z,118.37
2019-02-10T11:50:33.050Z,115.87
2019-02-10T11:53:03.625Z,101.70
2019-02-10T11:55:34.135Z,110.33
2019-02-10T11:58:05.139Z,119.80
2019-02-10T12:00:35.925Z,104.50
2019-02-10T12:03:06.726Z,103.63
2019-02-10T12:05:37.163Z,94.83
2019-02-10T12:08:07.996Z,107.43
2019-02-10T12:10:39.166Z,94.87
2019-02-10T12:13:09.567Z,99.70
2019-02-10T12:15:40.224Z,94.57
2019-02-10T12:18:11.046Z,86.90
2019-02-10T12:20:41.827Z,87.67
2019-02-10T12:23:12.589Z,99.37
2019-02-10T12:25:43.329Z,96.30
2019-02-10T12:28:14.209Z,95.60
2019-02-10T12:30:44.987Z,89.23
2019-02-10T12:33:17.465Z,92.50
2019-02-10T12:35:49.312Z,93.87
2019-02-10T12:38:20.337Z,84.57
2019-02-10T12:40:51.220Z,84.80
2019-02-10T12:43:22.192Z,80.67
2019-02-10T12:45:54.842Z,79.53
2019-02-10T12:48:26.569Z,79.13
2019-02-10T12:50:57.383Z,80.07
2019-02-10T12:53:28.330Z,78.83
2019-02-10T12:56:01.415Z,73.33
2019-02-10T12:58:33.326Z,76.80
2019-02-10T13:01:06.297Z,77.30
2019-02-10T13:03:38.513Z,68.67
2019-02-10T13:06:10.277Z,70.00
2019-02-10T13:08:40.804Z,65.90
2019-02-10T13:11:12.483Z,67.03
2019-02-10T13:13:43.904Z,58.53
2019-02-10T13:16:19.048Z,58.50
2019-02-10T13:18:52.568Z,61.83
2019-02-10T13:21:26.060Z,58.53
2019-02-10T13:23:57.365Z,66.23
2019-02-10T13:26:29.562Z,59.00
2019-02-10T13:29:00.520Z,62.00
2019-02-10T13:31:31.403Z,55.67
2019-02-10T13:34:04.498Z,56.60
2019-02-10T13:36:35.598Z,55.20
2019-02-10T13:39:08.176Z,58.90
2019-02-10T13:41:38.740Z,62.50
2019-02-10T13:44:11.438Z,54.57
2019-02-10T13:46:43.491Z,57.27
2019-02-10T13:49:15.844Z,63.00
2019-02-10T13:51:48.522Z,55.77
2019-02-10T13:54:20.788Z,57.83
2019-02-10T13:56:53.556Z,54.20
2019-02-10T13:59:24.661Z,55.40
2019-02-10T14:01:55.669Z,54.43
2019-02-10T14:04:26.596Z,55.60
2019-02-10T14:06:57.697Z,54.07
2019-02-10T14:09:29.614Z,60.30
2019-02-10T14:12:01.643Z,50.97
2019-02-10T14:14:32.661Z,56.87
2019-02-10T14:17:03.690Z,51.40
2019-02-10T14:19:34.638Z,51.47
2019-02-10T14:22:05.529Z,53.70
2019-02-10T14:24:36.053Z,52.13
2019-02-10T14:27:06.600Z,54.43
2019-02-10T14:29:37.718Z,53.30
2019-02-10T14:32:09.108Z,49.60
2019-02-10T14:34:39.531Z,49.17
2019-02-10T14:37:10.122Z,46.47
2019-02-10T14:39:40.633Z,51.00
2019-02-10T14:42:11.726Z,46.40
2019-02-10T14:44:42.485Z,45.03
2019-02-10T14:47:13.213Z,43.23
2019-02-10T14:49:43.790Z,42.60
2019-02-10T14:52:14.892Z,45.33
2019-02-10T14:54:45.677Z,45.50
2019-02-10T14:57:16.256Z,45.90
2019-02-10T14:59:46.909Z,45.27
2019-02-10T15:02:17.855Z,43.53
2019-02-10T15:04:48.907Z,45.30
2019-02-10T15:07:25.172Z,41.20
2019-02-10T15:09:52.955Z,42.17
2019-02-10T15:12:23.860Z,36.57
2019-02-10T15:14:55.032Z,43.30
2019-02-10T15:17:25.972Z,39.70
2019-02-10T15:19:56.896Z,41.67
2019-02-10T15:22:29.961Z,40.77
2019-02-10T15:25:01.043Z,44.43
2019-02-10T15:27:32.053Z,41.43
2019-02-10T15:30:05.197Z,41.27
2019-02-10T15:32:36.087Z,38.73
2019-02-10T15:35:06.891Z,42.63
2019-02-10T15:37:38.048Z,40.83
2019-02-10T15:40:09.178Z,58.93
2019-02-10T15:42:40.624Z,46.00
2019-02-10T15:45:13.069Z,44.20
2019-02-10T15:47:44.123Z,47.40
2019-02-10T15:50:15.109Z,43.90
2019-02-10T15:52:47.159Z,41.23
2019-02-10T15:55:19.349Z,49.77
2019-02-10T15:57:50.446Z,46.60
2019-02-10T16:00:23.373Z,58.70
2019-02-10T16:02:55.118Z,93.67
2019-02-10T16:05:26.176Z,52.20
2019-02-10T16:07:59.080Z,45.13
2019-02-10T16:10:31.357Z,47.40
2019-02-10T16:13:04.278Z,47.20
2019-02-10T16:15:35.238Z,43.80
2019-02-10T16:18:07.210Z,47.07
2019-02-10T16:20:39.299Z,47.47
2019-02-10T16:23:10.299Z,49.70
2019-02-10T16:25:40.976Z,50.50
2019-02-10T16:28:12.661Z,53.47
2019-02-10T16:30:44.325Z,51.33
2019-02-10T16:33:16.341Z,54.33
2019-02-10T16:35:47.343Z,53.23
2019-02-10T16:38:18.201Z,50.27
2019-02-10T16:40:49.067Z,52.87
2019-02-10T16:43:19.753Z,58.47
2019-02-10T16:45:54.410Z,57.87
2019-02-10T16:48:27.384Z,57.27
2019-02-10T16:50:58.368Z,54.60
2019-02-10T16:53:32.109Z,53.07
2019-02-10T16:56:05.246Z,56.07
2019-02-10T16:58:37.314Z,59.30
2019-02-10T17:01:10.473Z,50.37
2019-02-10T17:03:41.043Z,58.60
2019-02-10T17:06:12.280Z,61.63
2019-02-10T17:08:43.169Z,64.50
2019-02-10T17:11:14.498Z,58.50
2019-02-10T17:13:47.478Z,61.57
2019-02-10T17:16:18.561Z,59.53
2019-02-10T17:18:51.524Z,71.87
2019-02-10T17:21:22.497Z,64.93
2019-02-10T17:23:53.700Z,66.50
2019-02-10T17:26:24.598Z,78.90
2019-02-10T17:28:55.730Z,70.93
2019-02-10T17:31:28.518Z,65.57
2019-02-10T17:33:59.635Z,71.33
2019-02-10T17:36:30.718Z,85.30
2019-02-10T17:39:01.576Z,68.53
2019-02-10T17:41:39.268Z,77.50
2019-02-10T17:44:11.739Z,74.87
2019-02-10T17:46:44.803Z,75.17
2019-02-10T17:49:16.638Z,66.10
2019-02-10T17:51:47.535Z,79.57
2019-02-10T17:54:19.268Z,74.57
2019-02-10T17:56:49.727Z,71.10
2019-02-10T17:59:21.630Z,71.90
2019-02-10T18:01:53.860Z,72.83
2019-02-10T18:04:24.667Z,70.67
2019-02-10T18:06:55.657Z,67.50
2019-02-10T18:09:26.860Z,63.20
2019-02-10T18:11:59.796Z,69.23
2019-02-10T18:14:57.831Z,69.10
2019-02-10T18:17:53.609Z,75.60
2019-02-10T18:20:44.531Z,67.00
2019-02-10T18:23:33.044Z,68.47
2019-02-10T18:26:24.587Z,71.07
2019-02-10T18:29:13.125Z,67.20
2019-02-10T18:32:02.699Z,71.57
2019-02-10T18:34:43.950Z,68.10
2019-02-10T18:37:37.342Z,69.53
2019-02-10T18:40:27.396Z,67.03
2019-02-10T18:43:12.201Z,73.23
2019-02-10T18:45:57.581Z,75.70
2019-02-10T18:48:50.697Z,66.47
2019-02-10T18:51:50.920Z,74.50
2019-02-10T18:54:33.454Z,74.43
2019-02-10T18:57:31.749Z,75.80
2019-02-10T19:00:24.183Z,72.13
2019-02-10T19:03:04.124Z,76.43
2019-02-10T19:05:46.750Z,82.57
2019-02-10T19:08:32.074Z,79.77
2019-02-10T19:11:21.459Z,77.20
2019-02-10T19:14:01.850Z,69.53
2019-02-10T19:16:58.675Z,64.80
2019-02-10T19:19:42.448Z,72.93
2019-02-10T19:22:32.423Z,80.00
2019-02-10T19:25:19.773Z,65.97
2019-02-10T19:28:03.685Z,74.87
2019-02-10T19:31:10.984Z,68.77
2019-02-10T19:33:58.732Z,65.87
2019-02-10T19:36:43.328Z,71.83
2019-02-10T19:39:32.471Z,68.60
2019-02-10T19:42:19.180Z,68.53
2019-02-10T19:45:09.876Z,74.33
2019-02-10T19:47:57.920Z,77.17
2019-02-10T19:50:48.825Z,81.33
2019-02-10T19:53:27.301Z,78.90
2019-02-10T19:56:14.058Z,77.97
2019-02-10T19:59:03.406Z,75.20
2019-02-10T20:02:07.193Z,78.43
2019-02-10T20:05:02.015Z,82.87
2019-02-10T20:07:50.524Z,83.93
2019-02-10T20:10:41.049Z,81.90
2019-02-10T20:13:28.003Z,85.73
2019-02-10T20:16:07.283Z,83.77
2019-02-10T20:19:00.171Z,83.50
2019-02-10T20:21:54.840Z,93.40
2019-02-10T20:24:44.217Z,92.10
2019-02-10T20:27:38.688Z,95.73
2019-02-10T20:30:19.898Z,94.03
2019-02-10T20:33:21.854Z,84.67
2019-02-10T20:36:02.624Z,88.70
2019-02-10T20:38:50.512Z,94.53
2019-02-10T20:41:49.027Z,94.03
2019-02-10T20:44:43.628Z,95.13
2019-02-10T20:47:42.392Z,94.23
2019-02-10T20:50:37.009Z,104.37
2019-02-10T20:53:24.959Z,103.00
2019-02-10T20:56:15.289Z,103.47
2019-02-10T20:59:04.660Z,98.30
2019-02-10T21:01:55.303Z,89.27
2019-02-10T21:04:43.514Z,96.47
2019-02-10T21:07:42.507Z,97.60
2019-02-10T21:10:44.529Z,103.53
2019-02-10T21:13:50.408Z,100.70
2019-02-10T21:16:49.947Z,110.43
2019-02-10T21:19:40.349Z,109.13
2019-02-10T21:22:27.827Z,98.90
2019-02-10T21:25:13.442Z,97.43
2019-02-10T21:28:12.483Z,98.53
2019-02-10T21:31:01.810Z,100.80
2019-02-10T21:33:51.981Z,93.80
2019-02-10T21:36:36.266Z,93.13
2019-02-10T21:39:22.592Z,97.20
2019-02-10T21:42:17.578Z,100.10
2019-02-10T21:45:15.281Z,98.90
2019-02-10T21:48:05.133Z,94.53
2019-02-10T21:50:37.788Z,95.43
2019-02-10T21:53:10.713Z,106.33
2019-02-10T21:55:41.199Z,96.00
2019-02-10T21:58:12.716Z,101.63
2019-02-10T22:00:44.663Z,99.03
2019-02-10T22:03:17.627Z,78.07
2019-02-10T22:05:50.686Z,79.80
2019-02-10T22:08:21.743Z,72.30
2019-02-10T22:10:52.837Z,71.23
2019-02-10T22:13:23.747Z,73.90
2019-02-10T22:15:56.850Z,73.67
2019-02-10T22:18:28.774Z,84.00
2019-02-10T22:21:02.035Z,75.60
2019-02-10T22:23:32.715Z,68.50
2019-02-10T22:26:03.853Z,69.70
2019-02-10T22:28:35.853Z,57.73
2019-02-10T22:31:07.788Z,54.40
2019-02-10T22:33:38.815Z,48.53
2019-02-10T22:36:09.776Z,43.23
2019-02-10T22:38:40.635Z,41.57
2019-02-10T22:41:11.598Z,38.20
2019-02-10T22:43:42.005Z,26.73
2019-02-10T22:46:12.866Z,29.17
2019-02-10T22:48:43.778Z,28.37
2019-02-10T22:51:14.620Z,21.07
2019-02-10T22:53:45.355Z,19.67
2019-02-10T22:56:15.992Z,19.30
2019-02-10T22:58:46.870Z,17.83
2019-02-10T23:01:17.620Z,17.23
2019-02-10T23:03:49.148Z,16.53
2019-02-10T23:06:19.530Z,15.80
2019-02-10T23:08:50.142Z,16.33
2019-02-10T23:11:20.523Z,16.73
2019-02-10T23:13:50.917Z,17.57
2019-02-10T23:16:22.661Z,16.53
2019-02-10T23:18:53.473Z,20.00
2019-02-10T23:21:24.176Z,16.90
2019-02-10T23:23:55.281Z,17.87
2019-02-10T23:26:26.001Z,16.03
2019-02-10T23:28:57.070Z,11.83
2019-02-10T23:31:27.978Z,15.37
2019-02-10T23:33:59.108Z,10.10
2019-02-10T23:36:30.090Z,13.97
2019-02-10T23:39:01.024Z,9.33
2019-02-10T23:41:31.992Z,13.60
2019-02-10T23:44:02.899Z,9.43
2019-02-10T23:46:33.823Z,6.67
2019-02-10T23:49:04.227Z,5.23
2019-02-10T23:51:35.246Z,8.10
2019-02-10T23:54:06.241Z,4.33
2019-02-10T23:56:37.163Z,4.60
2019-02-10T23:59:08.264Z,5.23
